All
Moree Hospital Airport YXEE Weather
There is no TAF data available at YXEE. Showing TAF data for YMOR (2 mi S).
MRZ Terminal Area Forecast (no data for YXEE)
| Date | Time (AEST) | Flight Rules | Wind Dir. | Speed | Type | Height AGL (ft) | Visibility | Remarks | ||||||
|---|---|---|---|---|---|---|---|---|---|---|---|---|---|---|
| 04-May | 05:00PM | VFR | 360° | 13 kt | Clouds and Visibility are OK | >= 6 miles | ||||||||
| 04-May | 04:00PM | VFR | 360° | 13 kt | Clouds and Visibility are OK | >= 6 miles | ||||||||
| 04-May | 03:00PM | VFR | 360° | 13 kt | Clouds and Visibility are OK | >= 6 miles | ||||||||
| 04-May | 02:00PM | VFR | 360° | 13 kt | Clouds and Visibility are OK | >= 6 miles | ||||||||
| 04-May | 01:00PM | VFR | 360° | 13 kt | Clouds and Visibility are OK | >= 6 miles | ||||||||
| 04-May | 12:00PM | VFR | 360° | 13 kt | Clouds and Visibility are OK | >= 6 miles | ||||||||
| 04-May | 11:00AM | VFR | 360° | 13 kt | Clouds and Visibility are OK | >= 6 miles | ||||||||
| 04-May | 10:00AM | VFR | 360° | 13 kt | Clouds and Visibility are OK | >= 6 miles | ||||||||
There is no METAR data available at YXEE. Showing METAR data for YMOR (2 mi S).
Recent MRZ METAR history (no data for YXEE)
| Date | Time (AEST) | Flight Rules | Wind Dir. | Speed | Type | Height AGL (ft) | Visibility | Temp (°C) | Temp (°F) | Dew Point (°C) | Dew Point (°F) | Rel. Humid. | Pressure | Density Altitude | Remarks |
|---|---|---|---|---|---|---|---|---|---|---|---|---|---|---|---|
| 04-May | 10:00AM | VFR | 10° | 14 kt | 10000 meters | 24° | 75° | 14° | 57° | 54% | 1019 mb | 1,610 ft | |||
| 04-May | 09:00AM | VFR | 30° | 14 kt | 10000 meters | 22° | 71° | 14° | 57° | 60% | 1019 mb | 1,370 ft | |||
| 04-May | 08:00AM | VFR | 50° | 8 kt | 10000 meters | 19° | 66° | 13° | 55° | 68% | 1019 mb | 1,010 ft | |||
| 04-May | 07:00AM | VFR | 50° | 8 kt | 10000 meters | 16° | 60° | 13° | 55° | 82% | 1018 mb | 679 ft | |||
| 04-May | 06:00AM | VFR | 30° | 7 kt | 10000 meters | 16° | 60° | 13° | 55° | 82% | 1018 mb | 679 ft | |||
| 04-May | 05:00AM | VFR | 30° | 9 kt | 10000 meters | 17° | 62° | 13° | 55° | 77% | 1017 mb | 829 ft | |||
| 04-May | 04:00AM | VFR | 40° | 9 kt | 10000 meters | 18° | 64° | 13° | 55° | 73% | 1017 mb | 949 ft | |||
| 04-May | 03:00AM | VFR | 50° | 11 kt | 10000 meters | 18° | 64° | 13° | 55° | 73% | 1018 mb | 919 ft | |||
| 04-May | 02:00AM | VFR | 50° | 11 kt | 10000 meters | 18° | 64° | 12° | 53° | 68% | 1018 mb | 919 ft | |||
| 04-May | 01:00AM | VFR | 50° | 11 kt | 10000 meters | 19° | 66° | 12° | 53° | 64% | 1018 mb | 1,039 ft | |||
| 04-May | 12:00AM | VFR | 50° | 11 kt | Broken |
8,900 |
10000 meters | 19° | 66° | 11° | 51° | 60% | 1019 mb | 1,010 ft | |
| 03-May | 11:00PM | VFR | 50° | 13 kt | 10000 meters | 19° | 66° | 11° | 51° | 60% | 1018 mb | 1,039 ft | |||
| 03-May | 10:00PM | VFR | 40° | 10 kt | 10000 meters | 20° | 68° | 10° | 50° | 53% | 1019 mb | 1,130 ft | |||
| 03-May | 09:00PM | VFR | 30° | 8 kt | 10000 meters | 20° | 68° | 7° | 44° | 43% | 1019 mb | 1,130 ft | |||
| 03-May | 08:00PM | VFR | 10° | 6 kt | 10000 meters | 21° | 69° | 8° | 46° | 43% | 1018 mb | 1,279 ft | |||
| 03-May | 07:00PM | VFR | 10° | 6 kt | 10000 meters | 22° | 71° | 8° | 46° | 41% | 1018 mb | 1,399 ft | |||
| 03-May | 06:00PM | VFR | 10° | 5 kt | 10000 meters | 24° | 75° | 8° | 46° | 36% | 1017 mb | 1,669 ft | |||
| 03-May | 05:00PM | VFR | 20° | 8 kt | 10000 meters | 27° | 80° | 9° | 48° | 32% | 1017 mb | 2,029 ft | |||
| 03-May | 04:00PM | VFR | 10° | 7 kt | 10000 meters | 28° | 82° | 10° | 50° | 32% | 1017 mb | 2,149 ft | |||
| 03-May | 03:00PM | VFR | 40° | 9 kt | 10000 meters | 29° | 84° | 9° | 48° | 29% | 1017 mb | 2,269 ft | |||
| 03-May | 02:00PM | VFR | 10° | 7 kt | 10000 meters | 28° | 82° | 10° | 50° | 32% | 1018 mb | 2,119 ft | |||
| 03-May | 01:00PM | VFR | 30° | 8 kt | 10000 meters | 28° | 82° | 10° | 50° | 32% | 1019 mb | 2,090 ft | |||
| 03-May | 12:00PM | VFR | 50° | 9 kt | 10000 meters | 28° | 82° | 10° | 50° | 32% | 1020 mb | 2,060 ft | |||
| 03-May | 11:00AM | VFR | 30° | 12 kt | 10000 meters | 26° | 78° | 11° | 51° | 39% | 1021 mb | 1,791 ft |
Login
| Your browser is unsupported. upgrade your browser |
